Columbia, Iowa
Current Conditions -  °F | °C
As of 9:35 PM on Saturday 22 Nov 2014 (Local Time) from KOXV Reporting Station
Clear Clear  
Wind Chill: 12°   Ceiling: Unl
Heat Index: 12°   Visibility: 10mi
Dew Point: 10°   Wind: 17mph
Humidity: 88%   Direction: 180°S
Pressure: 29.66"   Gusts: 23mph
Location:  41.18°N, 93.15°W
Report Text: KOXV 230335Z AUTO 18015G20KT 10SM CLR 12/10 A2966 RMK AO2
Loading
Personal Weather Stations






























Interactive Weather Map New forecast layout! Learn more

10-Day Weather Forecast

Advertisements
Track Severe Weather on mobile